»·PEaware :: JBU180 KBFL-KSFO

JBU180 :: KBFL-KSFO

FLIGHT INFORMATION

Flight Status: Arrived
Operator:
JetBlue Airways
More flights by this operator :: More flights under this callsign
Pilot: Etienne B. (28927)
Aircraft: AIRBUS A320
(A320)
More flights by this aircraft type
Origin: KBFL Meadows
United States
Destination: KSFO San Francisco Intl
United States
More flights between these airports :: More routes between these airports
Route: +MEADO4 AVE MAKRS SERFR SERFR4
File this flight plan on PilotEdge
Remarks: RMK / SIMBRIEF
Altitude:
(Current/Filed)
30,000ft
Speed:
(Current/Filed)
431kts
Departed: 25-Apr-20 05:41 PM
Arrived: 25-Apr-20 06:28 PM
Distance/Time
Traveled:
207nm/0:47
Distance/Time
To Go:
Arrived

Flight Plot

Page will automatically refresh every two minutes.

Flight plan parsing failed; only flown route is shown


Map Options




Map Legend


Flown Route
Filed Route
Departure Airport
Arrival Airport
Navaid (VOR, NDB)
Fix

Horizontal Profiles

Position Reports

Time Latitude Longitude Heading Altitude Ground
Speed
25-Apr-20 17:21 35.437662 -119.055197 139 507ft 0kts
25-Apr-20 17:22 35.437662 -119.055197 139 507ft 0kts
25-Apr-20 17:23 35.437662 -119.055197 139 507ft 0kts
25-Apr-20 17:24 35.437662 -119.055197 139 507ft 0kts
25-Apr-20 17:25 35.437662 -119.055197 139 507ft 0kts
25-Apr-20 17:26 35.437662 -119.055197 139 507ft 0kts
25-Apr-20 17:27 35.437662 -119.055197 139 507ft 0kts
25-Apr-20 17:28 35.437662 -119.055197 139 507ft 0kts
25-Apr-20 17:29 35.437662 -119.055197 139 507ft 0kts
25-Apr-20 17:30 35.437902 -119.055451 137 507ft 2kts
25-Apr-20 17:31 35.437818 -119.055729 232 506ft 3kts
25-Apr-20 17:32 35.437703 -119.055902 230 505ft 0kts
25-Apr-20 17:33 35.437549 -119.057055 258 503ft 14kts
25-Apr-20 17:34 35.435590 -119.056089 135 498ft 9kts
25-Apr-20 17:35 35.433659 -119.053687 134 498ft 11kts
25-Apr-20 17:36 35.430756 -119.050223 136 497ft 15kts
25-Apr-20 17:37 35.427360 -119.046072 134 490ft 19kts
25-Apr-20 17:38 35.426176 -119.044707 138 487ft 1kts
25-Apr-20 17:39 35.425589 -119.046147 304 482ft 17kts
25-Apr-20 17:40 35.449876 -119.075563 314 1467ft 193kts
25-Apr-20 17:41 35.488775 -119.127436 310 4227ft 227kts
25-Apr-20 17:42 35.537341 -119.194775 310 6361ft 281kts
25-Apr-20 17:43 35.587637 -119.267363 310 9451ft 287kts
25-Apr-20 17:44 35.608233 -119.358316 272 12403ft 289kts
25-Apr-20 17:45 35.615930 -119.467932 273 13560ft 352kts
25-Apr-20 17:46 35.623802 -119.591397 272 15593ft 369kts
25-Apr-20 17:47 35.631528 -119.718126 272 17702ft 376kts
25-Apr-20 17:48 35.639284 -119.847579 272 19636ft 384kts
25-Apr-20 17:49 35.636292 -119.978421 245 21378ft 386kts
25-Apr-20 17:50 35.564224 -120.076060 224 22951ft 393kts
25-Apr-20 17:51 35.484180 -120.169329 224 24413ft 400kts
25-Apr-20 17:52 35.403343 -120.263557 225 25764ft 405kts
25-Apr-20 17:53 35.321140 -120.359131 225 26980ft 410kts
25-Apr-20 17:54 35.255869 -120.470847 258 28021ft 413kts
25-Apr-20 17:55 35.284679 -120.604696 307 28974ft 434kts
25-Apr-20 17:56 35.378432 -120.698857 317 30006ft 434kts
25-Apr-20 17:57 35.473133 -120.789482 317 30028ft 435kts
25-Apr-20 17:58 35.568452 -120.880835 317 30034ft 436kts
25-Apr-20 17:59 35.664132 -120.972769 317 30031ft 436kts
25-Apr-20 18:00 35.759212 -121.064509 317 30018ft 434kts
25-Apr-20 18:01 35.849371 -121.151744 316 29220ft 394kts
25-Apr-20 18:02 35.932312 -121.232251 316 28425ft 368kts
25-Apr-20 18:03 36.011832 -121.309619 316 27643ft 365kts
25-Apr-20 18:04 36.093115 -121.383987 322 26894ft 363kts
25-Apr-20 18:05 36.176838 -121.449259 322 26105ft 358kts
25-Apr-20 18:06 36.260781 -121.514905 322 25282ft 354kts
25-Apr-20 18:07 36.343458 -121.579716 322 24462ft 350kts
25-Apr-20 18:08 36.425012 -121.643806 323 23643ft 345kts
25-Apr-20 18:09 36.504833 -121.706686 322 22374ft 336kts
25-Apr-20 18:10 36.582584 -121.768142 323 20758ft 328kts
25-Apr-20 18:11 36.658474 -121.828257 323 19172ft 320kts
25-Apr-20 18:12 36.732788 -121.887178 326 17598ft 314kts
25-Apr-20 18:13 36.817197 -121.915263 344 16034ft 313kts
25-Apr-20 18:14 36.901095 -121.938731 344 14536ft 307kts
25-Apr-20 18:15 36.982880 -121.965155 340 13059ft 299kts
25-Apr-20 18:16 37.061515 -121.995811 340 11619ft 294kts
25-Apr-20 18:17 37.138823 -122.025977 340 10210ft 293kts
25-Apr-20 18:18 37.215965 -122.056074 339 8807ft 291kts
25-Apr-20 18:19 37.291111 -122.085690 339 7715ft 275kts
25-Apr-20 18:21 37.361253 -122.113354 339 6271ft 251kts
25-Apr-20 18:22 37.426860 -122.136763 341 5310ft 234kts
25-Apr-20 18:23 37.487722 -122.157563 342 3800ft 227kts
25-Apr-20 18:24 37.541372 -122.191503 300 2922ft 221kts
25-Apr-20 18:25 37.567618 -122.253679 294 1886ft 177kts
25-Apr-20 18:26 37.587090 -122.298897 296 1037ft 132kts
25-Apr-20 18:27 37.603764 -122.338968 293 410ft 127kts
25-Apr-20 18:28 37.617104 -122.371253 299 15ft 36kts
25-Apr-20 18:29 37.618973 -122.377202 270 27ft 2kts
25-Apr-20 18:30 37.619120 -122.380723 295 32ft 12kts
25-Apr-20 18:31 37.620513 -122.384952 230 32ft 8kts
25-Apr-20 18:32 37.618816 -122.385210 153 32ft 6kts

Navigation Log

Ident Type
Flight plan parsing failed, navigation log unavailable